Back to top

Worland, WY weather

Worland Municipal Airport, Worland, WY: 8/18/2022 03:53
Visibility10 statute milesclear sky
View 7-Day Forecast
Area Summary
Sky/CloudsSky Clear
Weather [last 24 hours]None
Pressure30.19 in.Hg (1022 hPa)
Dew Point37.9 °F (3.3 °C)
Relative Humidity47.2 %
Temperature57.9 °F (14.4 °C)red thermometer
Reading TimeMinimum to Maximum Temperature
6-hr ending 8/17@23:5362.1 °F to 93 °F (16.7 °C to 33.9 °C)
6-hr ending 8/17@17:5384.9 °F to 96.1 °F (29.4 °C to 35.6 °C)
6-hr ending 8/17@11:5357.9 °F to 86 °F (14.4 °C to 30 °C)
6-hr ending 8/17@05:5359 °F to 71.1 °F (15 °C to 21.7 °C)
24-hr ending 8/18@00:5357.9 °F to 96.1 °F (14.4 °C to 35.6 °C)
Wind6.9 MPH (6 KT) green arrow pointing 157.5 degrees
Wind FromSouth/Southeast (150 Degrees)
Twilight Begins05:48Sunshine Yesterday
Sunrise06:19N/A
Sunset20:11
Twilight Ends20:42
METARKWRL 180953Z AUTO 15006KT 10SM CLR 14/03 A3019 RMK AO2 SLP177 T01440033
Tags: